Latest Weather Observations for Adele Island

IDW60801

Issued at 7:05 pm WST Wednesday 26 November 2014 (issued every 30 minutes, with the page automatically refreshed every 10 minutes)

About weather observations | Map of weather stations | Latest weather observations for WA | Other Formats
Station Details ID: 200735 Name: ADELE ISLAND Lat: -15.51 Lon: 123.16 Height: 4.6 m
Data from the previous 72 hours. | See also: Recent months for locations in Western Australia
Date/Time
WST
Temp
°C
App
Temp
°C
Dew
Point
Rel
Hum
%
Delta-T
°C
Wind Press
QNH
hPa
Press
MSL
hPa
Rain
since 9 am
mm
Dir
 
Spd
km/h
Gust
km/h
Spd
kts
Gust
kts
26/07:00pm 29.0 - - - - N 13 17 7 9 1007.0 1006.9 -
26/06:30pm 29.2 - - - - N 15 17 8 9 1006.4 1006.3 -
26/06:00pm 29.3 - - - - N 19 24 10 13 1005.8 1005.7 -
26/05:30pm 29.5 - - - - N 20 24 11 13 1005.3 1005.2 -
26/05:00pm 29.7 - - - - N 22 24 12 13 1004.8 1004.7 -
26/04:30pm 29.5 - - - - N 24 28 13 15 1004.7 1004.6 -
26/04:00pm 29.7 - - - - N 20 26 11 14 1004.5 1004.4 -
26/03:30pm 29.5 - - - - N 19 24 10 13 1004.9 1004.8 -
26/03:00pm 29.5 - - - - N 17 20 9 11 1005.1 1005.0 -
26/02:30pm 29.4 - - - - N 20 26 11 14 1005.6 1005.5 -
26/02:00pm 29.3 - - - - NNE 20 26 11 14 1005.8 1005.7 -
26/01:30pm 30.0 - - - - NNE 22 28 12 15 1005.9 1005.8 -
26/01:00pm 29.7 - - - - NNE 28 32 15 17 1006.1 1006.0 -
26/12:30pm 29.5 - - - - NNE 26 33 14 18 1006.4 1006.3 -
26/12:00pm 31.6 - - - - NNE 17 20 9 11 1006.7 1006.6 -
26/11:30am 32.7 - - - - E 17 24 9 13 1007.0 1006.9 -
26/11:00am 32.1 - - - - SSE 24 30 13 16 1007.4 1007.3 -
26/10:30am 31.5 - - - - SSE 22 30 12 16 1007.8 1007.7 -
26/10:00am 31.8 - - - - S 24 32 13 17 1007.8 1007.7 -
26/09:30am 30.8 - - - - S 24 33 13 18 1007.9 1007.8 -
26/09:00am 30.3 - - - - S 28 35 15 19 1008.0 1007.9 -
26/08:30am 30.2 - - - - SSW 26 30 14 16 1008.0 1007.9 -
26/08:00am 30.4 - - - - SSW 22 28 12 15 1007.6 1007.5 -
26/07:30am 29.9 - - - - SSW 22 30 12 16 1007.6 1007.5 -
26/07:00am 29.6 - - - - SSW 20 26 11 14 1007.4 1007.3 -
26/06:30am 29.2 - - - - SW 19 22 10 12 1007.2 1007.1 -
26/06:00am 28.8 - - - - SW 17 22 9 12 1007.4 1007.3 -
26/05:30am 28.5 - - - - SSW 19 22 10 12 1007.2 1007.1 -
26/05:00am 28.5 - - - - SSW 19 24 10 13 1007.0 1006.9 -
26/04:30am 28.5 - - - - SSW 17 20 9 11 1006.9 1006.8 -
26/04:00am 28.3 - - - - S 13 15 7 8 1007.0 1006.9 -
26/03:30am 28.6 - - - - SSW 17 19 9 10 1006.6 1006.5 -
26/03:00am 28.6 - - - - S 15 17 8 9 1006.7 1006.6 -
26/02:30am 28.5 - - - - SSE 11 17 6 9 1006.7 1006.6 -
26/02:00am 29.0 - - - - SW 17 22 9 12 1006.4 1006.3 -
26/01:30am 29.2 - - - - SW 22 30 12 16 1006.3 1006.2 -
26/01:00am 28.8 - - - - SW 22 30 12 16 1006.0 1005.9 -
26/12:30am 28.9 - - - - W 24 28 13 15 1005.8 1005.7 -
26/12:00am 28.9 - - - - W 20 26 11 14 1006.5 1006.4 -
 
Date/Time
WST
Temp
°C
App
Temp
°C
Dew
Point
Rel
Hum
%
Delta-T
°C
Wind Press
QNH
hPa
Press
MSL
hPa
Rain
since 9 am
mm
Dir
 
Spd
km/h
Gust
km/h
Spd
kts
Gust
kts
25/11:30pm 28.9 - - - - W 22 28 12 15 1006.7 1006.6 -
25/11:00pm 28.9 - - - - W 20 28 11 15 1007.0 1006.9 -
25/10:30pm 29.0 - - - - W 20 26 11 14 1007.0 1006.9 -
25/10:00pm 29.0 - - - - WNW 19 26 10 14 1007.2 1007.1 -
25/09:30pm 29.0 - - - - W 19 22 10 12 1007.3 1007.2 -
25/09:00pm 28.9 - - - - WNW 17 20 9 11 1007.2 1007.1 -
25/08:30pm 29.0 - - - - WNW 20 26 11 14 1006.9 1006.8 -
25/08:00pm 29.1 - - - - WNW 20 26 11 14 1006.8 1006.7 -
25/07:30pm 29.2 - - - - WNW 17 20 9 11 1006.6 1006.5 -
25/07:00pm 29.4 - - - - WNW 19 22 10 12 1006.4 1006.3 -
25/06:30pm 29.5 - - - - WNW 17 20 9 11 1006.3 1006.2 -
25/06:00pm 29.6 - - - - WNW 15 19 8 10 1006.0 1005.9 -
25/05:30pm 29.9 - - - - W 19 20 10 11 1005.7 1005.6 -
25/05:00pm 30.0 - - - - W 17 20 9 11 1005.5 1005.4 -
25/04:30pm 30.6 - - - - W 15 20 8 11 1005.6 1005.5 -
25/04:00pm 30.7 - - - - W 17 20 9 11 1005.8 1005.7 -
25/03:30pm 30.2 - - - - W 17 20 9 11 1006.0 1005.9 -
25/03:00pm 30.4 - - - - W 17 20 9 11 1006.2 1006.1 -
25/02:30pm 30.5 - - - - W 17 20 9 11 1006.5 1006.4 -
25/02:00pm 30.2 - - - - W 17 20 9 11 1007.0 1006.9 -
25/01:30pm 30.7 - - - - WSW 17 20 9 11 1007.5 1007.4 -
25/01:00pm 30.2 - - - - WSW 17 20 9 11 1008.0 1007.9 -
25/12:30pm 30.8 - - - - WSW 15 17 8 9 1008.5 1008.4 -
25/12:00pm 30.5 - - - - W 15 19 8 10 1008.8 1008.7 -
25/11:30am 30.7 - - - - WSW 15 19 8 10 1009.1 1009.0 -
25/11:00am 30.1 - - - - WSW 17 20 9 11 1009.5 1009.4 -
25/10:30am 30.5 - - - - W 15 19 8 10 1009.7 1009.6 -
25/10:00am 30.2 - - - - NNW 7 11 4 6 1009.9 1009.8 -
25/09:30am 31.7 - - - - E 7 13 4 7 1010.1 1010.0 -
25/09:00am 31.9 - - - - NE 2 7 1 4 1010.2 1010.1 -
25/08:30am 30.6 - - - - ENE 9 13 5 7 1010.4 1010.3 -
25/08:00am 30.0 - - - - E 9 15 5 8 1010.4 1010.3 -
25/07:30am 29.7 - - - - E 11 15 6 8 1010.4 1010.3 -
25/07:00am 29.8 - - - - SE 13 15 7 8 1010.2 1010.1 -
25/06:30am 28.7 - - - - E 15 17 8 9 1010.3 1010.2 -
25/06:00am 28.2 - - - - NNE 7 9 4 5 1009.4 1009.3 -
25/05:30am 28.6 - - - - N 4 7 2 4 1008.8 1008.7 -
25/05:00am 28.6 - - - - WNW 11 11 6 6 1008.2 1008.1 -
25/04:30am 28.6 - - - - WNW 11 11 6 6 1007.9 1007.8 -
25/04:00am 28.7 - - - - WNW 11 13 6 7 1007.6 1007.5 -
25/03:30am 28.7 - - - - WSW 13 15 7 8 1007.4 1007.3 -
25/03:00am 28.8 - - - - W 13 15 7 8 1007.3 1007.2 -
25/02:30am 28.9 - - - - WNW 15 20 8 11 1007.1 1007.0 -
25/02:00am 28.8 - - - - W 17 20 9 11 1007.0 1006.9 -
25/01:30am 28.9 - - - - W 17 24 9 13 1007.3 1007.2 -
25/01:00am 29.0 - - - - W 20 24 11 13 1007.2 1007.1 -
25/12:30am 29.0 - - - - W 20 24 11 13 1007.8 1007.7 -
25/12:00am 29.0 - - - - W 22 28 12 15 1008.1 1008.0 -
 
Date/Time
WST
Temp
°C
App
Temp
°C
Dew
Point
Rel
Hum
%
Delta-T
°C
Wind Press
QNH
hPa
Press
MSL
hPa
Rain
since 9 am
mm
Dir
 
Spd
km/h
Gust
km/h
Spd
kts
Gust
kts
24/11:30pm 28.9 - - - - W 22 26 12 14 1008.6 1008.5 -
24/11:00pm 28.8 - - - - W 20 24 11 13 1008.9 1008.8 -
24/10:30pm 28.9 - - - - W 19 22 10 12 1009.1 1009.0 -
24/10:00pm 28.7 - - - - W 17 22 9 12 1009.4 1009.3 -
24/09:30pm 28.6 - - - - W 19 22 10 12 1009.6 1009.5 -
24/09:00pm 28.6 - - - - W 17 20 9 11 1009.4 1009.3 -
24/08:30pm 28.6 - - - - W 17 19 9 10 1009.4 1009.3 -
24/08:00pm 28.6 - - - - W 17 20 9 11 1009.2 1009.1 -
24/07:30pm 28.8 - - - - W 17 20 9 11 1008.9 1008.8 -
24/07:00pm 28.8 - - - - W 15 19 8 10 1008.8 1008.7 -
24/06:30pm 29.0 - - - - WSW 17 19 9 10 1008.4 1008.3 -
24/06:00pm 29.0 - - - - WSW 19 22 10 12 1008.0 1007.9 -
24/05:30pm 29.4 - - - - W 19 22 10 12 1007.6 1007.5 -
24/05:00pm 29.7 - - - - W 17 20 9 11 1007.2 1007.1 -
24/04:30pm 29.9 - - - - WSW 17 20 9 11 1007.2 1007.1 -
24/04:00pm 30.1 - - - - WSW 19 22 10 12 1007.2 1007.1 -
24/03:30pm 30.5 - - - - SW 19 20 10 11 1007.5 1007.4 -
24/03:00pm 31.0 - - - - SW 20 24 11 13 1007.7 1007.6 -
24/02:30pm 31.1 - - - - WSW 19 24 10 13 1008.0 1007.9 -
24/02:00pm 31.1 - - - - WSW 15 19 8 10 1008.4 1008.3 -
24/01:30pm 31.3 - - - - W 13 17 7 9 1008.6 1008.5 -
24/01:00pm 31.6 - - - - WNW 11 15 6 8 1008.9 1008.8 -
24/12:30pm 31.9 - - - - NNW 13 15 7 8 1009.2 1009.1 -
24/12:00pm 31.6 - - - - NNW 11 13 6 7 1009.7 1009.6 -
24/11:30am 31.4 - - - - NNW 11 13 6 7 1009.9 1009.8 -
24/11:00am 31.2 - - - - N 9 13 5 7 1010.3 1010.2 -
24/10:30am 30.4 - - - - N 11 15 6 8 1010.5 1010.4 -
24/10:00am 29.8 - - - - N 13 15 7 8 1011.0 1010.9 -
24/09:30am 30.5 - - - - NNW 9 13 5 7 1011.2 1011.1 -
24/09:00am 30.1 - - - - NNE 9 11 5 6 1011.4 1011.3 -
24/08:30am 29.8 - - - - NNE 7 11 4 6 1011.5 1011.4 -
24/08:00am 29.5 - - - - N 9 11 5 6 1011.6 1011.5 -
24/07:30am 29.4 - - - - N 6 9 3 5 1011.5 1011.4 -
24/07:00am 29.0 - - - - N 6 7 3 4 1011.5 1011.4 -
24/06:30am 28.7 - - - - CALM 0 6 0 3 1011.5 1011.4 -
24/06:00am 28.7 - - - - CALM 0 0 0 0 1011.2 1011.1 -
24/05:30am 27.7 - - - - CALM 0 4 0 2 1010.8 1010.7 -
24/05:00am 27.8 - - - - CALM 0 4 0 2 1010.5 1010.4 -
24/04:30am 27.7 - - - - NNE 6 6 3 3 1010.4 1010.3 -
24/04:00am 27.8 - - - - NNE 6 6 3 3 1010.2 1010.1 -
24/03:30am 27.9 - - - - NE 9 9 5 5 1009.9 1009.8 -
24/03:00am 27.9 - - - - SSW 9 13 5 7 1009.6 1009.5 -
24/02:30am 28.1 - - - - NNW 9 11 5 6 1009.6 1009.5 -
24/02:00am 27.9 - - - - NNW 9 9 5 5 1009.4 1009.3 -
24/01:30am 28.3 - - - - NNW 9 9 5 5 1009.5 1009.4 -
24/01:00am 28.0 - - - - NNE 4 7 2 4 1009.8 1009.7 -
24/12:30am 28.2 - - - - NE 7 9 4 5 1010.1 1010.0 -
24/12:00am 28.0 - - - - ENE 7 9 4 5 1010.4 1010.3 -
 
Date/Time
WST
Temp
°C
App
Temp
°C
Dew
Point
Rel
Hum
%
Delta-T
°C
Wind Press
QNH
hPa
Press
MSL
hPa
Rain
since 9 am
mm
Dir
 
Spd
km/h
Gust
km/h
Spd
kts
Gust
kts
23/11:30pm 28.5 - - - - NW 9 13 5 7 1010.9 1010.8 -
23/11:00pm 28.8 - - - - W 11 13 6 7 1011.1 1011.0 -
23/10:30pm 28.8 - - - - WNW 15 19 8 10 1011.1 1011.0 -
23/10:00pm 28.7 - - - - W 13 17 7 9 1011.1 1011.0 -
23/09:30pm 28.8 - - - - W 15 17 8 9 1010.9 1010.8 -
23/09:00pm 28.8 - - - - WNW 13 17 7 9 1010.6 1010.5 -
23/08:30pm 28.8 - - - - W 17 20 9 11 1010.3 1010.2 -
23/08:00pm 28.7 - - - - W 17 20 9 11 1010.0 1009.9 -
23/07:30pm 28.7 - - - - W 15 19 8 10 1009.5 1009.4 -

Other Formats:

Comma delimited format used in spreadsheet applications
http://www.bom.gov.au/fwo/IDW60801/IDW60801.94210.axf

JavaScript Object Notation format (JSON) in row-major order
http://www.bom.gov.au/fwo/IDW60801/IDW60801.94210.json